sensor_id;sensor_type;location;lat;lon;timestamp;pressure;altitude;pressure_sealevel;temperature;humidity
40117;BME280;25829;50.228;18.936;2023-02-15T00:02:16;100244.06;;;2.35;71.17
40117;BME280;25829;50.228;18.936;2023-02-15T00:05:17;100236.38;;;2.33;71.30
40117;BME280;25829;50.228;18.936;2023-02-15T00:08:18;100231.97;;;2.34;71.60
40117;BME280;25829;50.228;18.936;2023-02-15T00:11:18;100230.00;;;2.37;71.57
40117;BME280;25829;50.228;18.936;2023-02-15T00:14:37;100240.19;;;2.40;71.41
40117;BME280;25829;50.228;18.936;2023-02-15T00:17:38;100232.16;;;2.43;71.14
40117;BME280;25829;50.228;18.936;2023-02-15T00:20:39;100226.13;;;2.43;71.15
40117;BME280;25829;50.228;18.936;2023-02-15T00:23:40;100222.16;;;2.37;70.81
40117;BME280;25829;50.228;18.936;2023-02-15T00:26:41;100223.00;;;2.38;71.17
40117;BME280;25829;50.228;18.936;2023-02-15T00:29:42;100220.19;;;2.41;71.43
40117;BME280;25829;50.228;18.936;2023-02-15T00:32:43;100221.94;;;2.40;71.52
40117;BME280;25829;50.228;18.936;2023-02-15T00:35:45;100213.19;;;2.41;71.40
40117;BME280;25829;50.228;18.936;2023-02-15T00:38:45;100212.94;;;2.33;70.61
40117;BME280;25829;50.228;18.936;2023-02-15T00:41:47;100203.34;;;2.34;70.45
40117;BME280;25829;50.228;18.936;2023-02-15T00:44:47;100192.91;;;2.34;71.09
40117;BME280;25829;50.228;18.936;2023-02-15T00:47:48;100195.16;;;2.38;71.03
40117;BME280;25829;50.228;18.936;2023-02-15T00:50:55;100183.38;;;2.45;70.67
40117;BME280;25829;50.228;18.936;2023-02-15T00:53:56;100191.75;;;2.38;70.07
40117;BME280;25829;50.228;18.936;2023-02-15T00:56:57;100194.81;;;2.32;70.92
40117;BME280;25829;50.228;18.936;2023-02-15T00:59:57;100184.41;;;2.32;71.10
40117;BME280;25829;50.228;18.936;2023-02-15T01:02:58;100185.31;;;2.31;71.05
40117;BME280;25829;50.228;18.936;2023-02-15T01:05:59;100185.09;;;2.34;70.75
40117;BME280;25829;50.228;18.936;2023-02-15T01:09:01;100175.97;;;2.28;70.55
40117;BME280;25829;50.228;18.936;2023-02-15T01:12:02;100186.50;;;2.26;70.90
40117;BME280;25829;50.228;18.936;2023-02-15T01:15:03;100195.34;;;2.24;71.07
40117;BME280;25829;50.228;18.936;2023-02-15T01:18:04;100189.31;;;2.23;71.16
40117;BME280;25829;50.228;18.936;2023-02-15T01:21:12;100190.13;;;2.24;70.75
40117;BME280;25829;50.228;18.936;2023-02-15T01:24:14;100185.75;;;2.24;70.86
40117;BME280;25829;50.228;18.936;2023-02-15T01:27:15;100172.75;;;2.24;71.18
40117;BME280;25829;50.228;18.936;2023-02-15T01:30:17;100182.94;;;2.27;71.40
40117;BME280;25829;50.228;18.936;2023-02-15T01:33:18;100170.78;;;2.28;71.04
40117;BME280;25829;50.228;18.936;2023-02-15T01:36:19;100159.59;;;2.15;70.94
40117;BME280;25829;50.228;18.936;2023-02-15T01:39:20;100162.03;;;2.05;71.03
40117;BME280;25829;50.228;18.936;2023-02-15T01:42:22;100156.28;;;2.00;71.08
40117;BME280;25829;50.228;18.936;2023-02-15T01:45:29;100154.22;;;2.05;71.46
40117;BME280;25829;50.228;18.936;2023-02-15T01:48:30;100153.03;;;2.09;71.84
40117;BME280;25829;50.228;18.936;2023-02-15T01:51:33;100135.31;;;2.14;71.36
40117;BME280;25829;50.228;18.936;2023-02-15T01:54:36;100131.16;;;2.12;71.28
40117;BME280;25829;50.228;18.936;2023-02-15T01:57:39;100132.34;;;2.08;71.27
40117;BME280;25829;50.228;18.936;2023-02-15T02:39:11;100090.78;;;2.06;70.20
40117;BME280;25829;50.228;18.936;2023-02-15T02:42:40;100088.91;;;2.08;69.80
40117;BME280;25829;50.228;18.936;2023-02-15T02:46:01;100083.19;;;2.03;69.87
40117;BME280;25829;50.228;18.936;2023-02-15T02:49:06;100077.66;;;2.08;70.42
40117;BME280;25829;50.228;18.936;2023-02-15T02:52:37;100073.28;;;2.08;69.91
40117;BME280;25829;50.228;18.936;2023-02-15T02:55:48;100068.28;;;2.05;69.79
40117;BME280;25829;50.228;18.936;2023-02-15T03:02:10;100070.78;;;2.07;69.78
40117;BME280;25829;50.228;18.936;2023-02-15T03:05:17;100065.47;;;2.08;70.15
40117;BME280;25829;50.228;18.936;2023-02-15T03:08:25;100067.47;;;2.05;69.46
40117;BME280;25829;50.228;18.936;2023-02-15T03:11:35;100065.53;;;1.95;69.47
40117;BME280;25829;50.228;18.936;2023-02-15T03:14:44;100060.56;;;1.92;69.74
40117;BME280;25829;50.228;18.936;2023-02-15T03:17:52;100064.94;;;1.92;69.68
40117;BME280;25829;50.228;18.936;2023-02-15T03:21:00;100067.06;;;1.87;70.23
40117;BME280;25829;50.228;18.936;2023-02-15T03:24:18;100061.28;;;1.94;70.13
40117;BME280;25829;50.228;18.936;2023-02-15T03:27:27;100058.94;;;2.02;70.09
40117;BME280;25829;50.228;18.936;2023-02-15T03:30:30;100068.28;;;2.05;69.93
40117;BME280;25829;50.228;18.936;2023-02-15T03:33:35;100065.13;;;2.13;70.21
40117;BME280;25829;50.228;18.936;2023-02-15T03:36:52;100060.13;;;2.10;69.75
40117;BME280;25829;50.228;18.936;2023-02-15T03:47:04;100065.91;;;2.02;70.01
40117;BME280;25829;50.228;18.936;2023-02-15T03:53:30;100072.16;;;1.99;69.80
40117;BME280;25829;50.228;18.936;2023-02-15T03:56:36;100073.25;;;1.97;69.74
40117;BME280;25829;50.228;18.936;2023-02-15T03:59:38;100073.34;;;1.95;69.85
40117;BME280;25829;50.228;18.936;2023-02-15T04:03:28;100076.56;;;1.99;69.83
40117;BME280;25829;50.228;18.936;2023-02-15T04:06:31;100086.75;;;2.02;70.26
40117;BME280;25829;50.228;18.936;2023-02-15T04:09:32;100077.13;;;1.91;69.63
40117;BME280;25829;50.228;18.936;2023-02-15T04:12:51;100071.41;;;1.86;69.96
40117;BME280;25829;50.228;18.936;2023-02-15T04:15:54;100082.06;;;1.83;69.94
40117;BME280;25829;50.228;18.936;2023-02-15T04:19:03;100078.84;;;1.79;70.29
40117;BME280;25829;50.228;18.936;2023-02-15T04:22:23;100072.09;;;1.77;70.11
40117;BME280;25829;50.228;18.936;2023-02-15T04:25:42;100069.28;;;1.80;70.42
40117;BME280;25829;50.228;18.936;2023-02-15T04:28:43;100066.44;;;1.83;70.15
40117;BME280;25829;50.228;18.936;2023-02-15T04:31:44;100068.72;;;1.88;70.20
40117;BME280;25829;50.228;18.936;2023-02-15T04:34:50;100077.56;;;1.85;70.26
40117;BME280;25829;50.228;18.936;2023-02-15T04:37:51;100076.25;;;1.79;70.46
40117;BME280;25829;50.228;18.936;2023-02-15T04:40:52;100075.53;;;1.77;70.10
40117;BME280;25829;50.228;18.936;2023-02-15T04:43:53;100073.66;;;1.79;70.68
40117;BME280;25829;50.228;18.936;2023-02-15T04:46:54;100079.56;;;1.82;70.77
40117;BME280;25829;50.228;18.936;2023-02-15T04:49:55;100074.56;;;1.78;70.28
40117;BME280;25829;50.228;18.936;2023-02-15T04:52:59;100069.59;;;1.75;70.35
40117;BME280;25829;50.228;18.936;2023-02-15T04:55:59;100069.81;;;1.72;70.78
40117;BME280;25829;50.228;18.936;2023-02-15T04:59:00;100067.19;;;1.72;70.71
40117;BME280;25829;50.228;18.936;2023-02-15T05:02:01;100069.28;;;1.80;70.94
40117;BME280;25829;50.228;18.936;2023-02-15T05:05:03;100069.66;;;1.87;70.25
40117;BME280;25829;50.228;18.936;2023-02-15T05:08:16;100071.75;;;1.82;70.18
40117;BME280;25829;50.228;18.936;2023-02-15T05:11:17;100082.00;;;1.72;70.49
40117;BME280;25829;50.228;18.936;2023-02-15T05:14:18;100071.78;;;1.69;70.66
40117;BME280;25829;50.228;18.936;2023-02-15T05:17:22;100076.69;;;1.73;71.02
40117;BME280;25829;50.228;18.936;2023-02-15T05:20:22;100087.59;;;1.78;70.83
40117;BME280;25829;50.228;18.936;2023-02-15T05:23:23;100074.69;;;1.77;70.80
40117;BME280;25829;50.228;18.936;2023-02-15T05:26:27;100071.50;;;1.73;70.61
40117;BME280;25829;50.228;18.936;2023-02-15T05:29:46;100067.44;;;1.69;71.04
40117;BME280;25829;50.228;18.936;2023-02-15T05:32:48;100068.84;;;1.62;70.92
40117;BME280;25829;50.228;18.936;2023-02-15T05:35:49;100067.16;;;1.61;71.04
40117;BME280;25829;50.228;18.936;2023-02-15T05:39:00;100067.66;;;1.66;70.80
40117;BME280;25829;50.228;18.936;2023-02-15T05:42:01;100064.34;;;1.64;71.10
40117;BME280;25829;50.228;18.936;2023-02-15T05:45:02;100059.25;;;1.63;70.99
40117;BME280;25829;50.228;18.936;2023-02-15T05:48:04;100066.84;;;1.66;70.93
40117;BME280;25829;50.228;18.936;2023-02-15T05:51:09;100066.50;;;1.70;70.93
40117;BME280;25829;50.228;18.936;2023-02-15T05:54:10;100065.47;;;1.73;71.11
40117;BME280;25829;50.228;18.936;2023-02-15T05:57:10;100067.94;;;1.74;70.88
40117;BME280;25829;50.228;18.936;2023-02-15T06:00:12;100075.97;;;1.71;70.91
40117;BME280;25829;50.228;18.936;2023-02-15T06:03:18;100076.56;;;1.75;71.40
40117;BME280;25829;50.228;18.936;2023-02-15T06:06:18;100074.53;;;1.67;71.18
40117;BME280;25829;50.228;18.936;2023-02-15T06:09:19;100071.53;;;1.61;71.41
40117;BME280;25829;50.228;18.936;2023-02-15T06:12:20;100064.56;;;1.61;71.71
40117;BME280;25829;50.228;18.936;2023-02-15T06:15:24;100074.25;;;1.59;71.62
40117;BME280;25829;50.228;18.936;2023-02-15T06:18:24;100064.78;;;1.58;71.45
40117;BME280;25829;50.228;18.936;2023-02-15T06:21:25;100076.34;;;1.54;71.62
40117;BME280;25829;50.228;18.936;2023-02-15T06:24:29;100079.78;;;1.54;71.49
40117;BME280;25829;50.228;18.936;2023-02-15T06:27:29;100082.28;;;1.56;71.75
40117;BME280;25829;50.228;18.936;2023-02-15T06:30:30;100079.69;;;1.56;71.91
40117;BME280;25829;50.228;18.936;2023-02-15T06:33:31;100087.47;;;1.56;72.14
40117;BME280;25829;50.228;18.936;2023-02-15T06:36:34;100092.78;;;1.54;72.04
40117;BME280;25829;50.228;18.936;2023-02-15T06:39:35;100090.09;;;1.56;71.73
40117;BME280;25829;50.228;18.936;2023-02-15T06:42:38;100090.78;;;1.58;72.11
40117;BME280;25829;50.228;18.936;2023-02-15T06:45:39;100097.22;;;1.65;71.81
40117;BME280;25829;50.228;18.936;2023-02-15T06:48:41;100080.56;;;1.68;71.71
40117;BME280;25829;50.228;18.936;2023-02-15T06:51:42;100085.50;;;1.60;71.69
40117;BME280;25829;50.228;18.936;2023-02-15T06:54:43;100079.34;;;1.61;71.90
40117;BME280;25829;50.228;18.936;2023-02-15T06:57:44;100081.31;;;1.57;72.12
40117;BME280;25829;50.228;18.936;2023-02-15T07:00:44;100079.47;;;1.59;72.12
40117;BME280;25829;50.228;18.936;2023-02-15T07:03:45;100073.75;;;1.54;71.85
40117;BME280;25829;50.228;18.936;2023-02-15T07:06:46;100068.44;;;1.55;72.11
40117;BME280;25829;50.228;18.936;2023-02-15T07:09:47;100073.78;;;1.65;72.19
40117;BME280;25829;50.228;18.936;2023-02-15T07:12:47;100068.28;;;1.70;71.64
40117;BME280;25829;50.228;18.936;2023-02-15T07:15:51;100076.47;;;1.76;72.26
40117;BME280;25829;50.228;18.936;2023-02-15T07:18:55;100071.50;;;1.73;72.00
40117;BME280;25829;50.228;18.936;2023-02-15T07:21:56;100074.91;;;1.74;71.53
40117;BME280;25829;50.228;18.936;2023-02-15T07:24:57;100070.16;;;1.68;71.99
40117;BME280;25829;50.228;18.936;2023-02-15T07:27:59;100072.13;;;1.64;72.26
40117;BME280;25829;50.228;18.936;2023-02-15T07:31:02;100062.34;;;1.68;72.13
40117;BME280;25829;50.228;18.936;2023-02-15T07:34:15;100065.00;;;1.79;71.72
40117;BME280;25829;50.228;18.936;2023-02-15T07:37:19;100067.16;;;1.85;71.61
40117;BME280;25829;50.228;18.936;2023-02-15T07:40:20;100064.44;;;1.87;71.45
40117;BME280;25829;50.228;18.936;2023-02-15T07:43:23;100069.53;;;1.88;71.45
40117;BME280;25829;50.228;18.936;2023-02-15T07:46:24;100070.25;;;1.90;71.65
40117;BME280;25829;50.228;18.936;2023-02-15T07:49:25;100061.75;;;1.99;71.66
40117;BME280;25829;50.228;18.936;2023-02-15T07:52:25;100061.19;;;2.07;71.49
40117;BME280;25829;50.228;18.936;2023-02-15T07:55:26;100060.72;;;2.02;70.94
40117;BME280;25829;50.228;18.936;2023-02-15T07:58:51;100049.81;;;1.97;71.23
40117;BME280;25829;50.228;18.936;2023-02-15T08:01:51;100059.69;;;1.81;71.47
40117;BME280;25829;50.228;18.936;2023-02-15T08:04:54;100046.47;;;1.84;71.81
40117;BME280;25829;50.228;18.936;2023-02-15T08:07:55;100055.47;;;1.91;71.88
40117;BME280;25829;50.228;18.936;2023-02-15T08:11:09;100054.28;;;1.95;71.40
40117;BME280;25829;50.228;18.936;2023-02-15T08:14:27;100056.06;;;1.94;71.66
40117;BME280;25829;50.228;18.936;2023-02-15T08:17:27;100045.53;;;1.96;71.29
40117;BME280;25829;50.228;18.936;2023-02-15T08:20:28;100052.66;;;1.94;71.47
40117;BME280;25829;50.228;18.936;2023-02-15T08:23:29;100049.91;;;1.95;71.33
40117;BME280;25829;50.228;18.936;2023-02-15T08:26:31;100038.09;;;2.02;71.56
40117;BME280;25829;50.228;18.936;2023-02-15T08:29:33;100035.44;;;2.15;71.42
40117;BME280;25829;50.228;18.936;2023-02-15T08:32:35;100038.28;;;2.23;71.44
40117;BME280;25829;50.228;18.936;2023-02-15T08:35:35;100030.47;;;2.35;71.02
40117;BME280;25829;50.228;18.936;2023-02-15T08:38:50;100030.25;;;2.38;70.94
40117;BME280;25829;50.228;18.936;2023-02-15T08:42:06;100025.06;;;2.49;70.69
40117;BME280;25829;50.228;18.936;2023-02-15T08:45:10;100024.13;;;2.50;70.39
40117;BME280;25829;50.228;18.936;2023-02-15T08:48:11;100027.41;;;2.52;70.31
40117;BME280;25829;50.228;18.936;2023-02-15T08:51:17;100019.03;;;2.60;70.20
40117;BME280;25829;50.228;18.936;2023-02-15T08:54:22;100016.19;;;2.63;70.14
40117;BME280;25829;50.228;18.936;2023-02-15T08:57:23;100018.22;;;2.70;70.05
40117;BME280;25829;50.228;18.936;2023-02-15T09:00:24;100004.72;;;2.77;69.82
40117;BME280;25829;50.228;18.936;2023-02-15T09:03:25;99996.28;;;2.84;69.77
40117;BME280;25829;50.228;18.936;2023-02-15T09:06:27;99998.72;;;2.97;69.71
40117;BME280;25829;50.228;18.936;2023-02-15T09:09:33;100010.34;;;3.15;69.38
40117;BME280;25829;50.228;18.936;2023-02-15T09:12:43;100000.91;;;3.35;69.24
40117;BME280;25829;50.228;18.936;2023-02-15T09:15:44;100001.59;;;3.49;68.67
40117;BME280;25829;50.228;18.936;2023-02-15T09:18:47;100004.06;;;3.61;67.50
40117;BME280;25829;50.228;18.936;2023-02-15T09:21:52;99998.78;;;3.73;67.17
40117;BME280;25829;50.228;18.936;2023-02-15T09:24:53;99992.25;;;3.78;66.76
40117;BME280;25829;50.228;18.936;2023-02-15T09:27:53;99992.06;;;3.91;67.41
40117;BME280;25829;50.228;18.936;2023-02-15T09:31:04;99983.38;;;4.11;66.95
40117;BME280;25829;50.228;18.936;2023-02-15T09:34:05;99978.78;;;4.25;66.58
40117;BME280;25829;50.228;18.936;2023-02-15T09:37:06;99966.50;;;4.46;66.87
40117;BME280;25829;50.228;18.936;2023-02-15T09:40:07;99963.56;;;4.70;65.53
40117;BME280;25829;50.228;18.936;2023-02-15T09:54:51;99954.88;;;5.88;62.78
40117;BME280;25829;50.228;18.936;2023-02-15T09:58:04;99955.38;;;6.11;59.32
40117;BME280;25829;50.228;18.936;2023-02-15T10:08:23;99940.66;;;8.68;57.23
40117;BME280;25829;50.228;18.936;2023-02-15T10:19:01;99934.94;;;10.52;51.38
40117;BME280;25829;50.228;18.936;2023-02-15T10:28:50;99922.53;;;11.84;52.75
40117;BME280;25829;50.228;18.936;2023-02-15T11:00:06;99897.94;;;11.61;43.64
40117;BME280;25829;50.228;18.936;2023-02-15T11:06:30;99886.72;;;10.19;50.25
40117;BME280;25829;50.228;18.936;2023-02-15T11:09:40;99884.84;;;9.72;50.64
40117;BME280;25829;50.228;18.936;2023-02-15T11:12:43;99884.72;;;9.41;52.56
40117;BME280;25829;50.228;18.936;2023-02-15T11:16:00;99885.50;;;9.17;52.77
40117;BME280;25829;50.228;18.936;2023-02-15T11:19:09;99874.44;;;8.89;51.53
40117;BME280;25829;50.228;18.936;2023-02-15T11:22:21;99869.16;;;8.30;51.28
40117;BME280;25829;50.228;18.936;2023-02-15T11:25:33;99866.72;;;8.03;53.06
40117;BME280;25829;50.228;18.936;2023-02-15T11:28:42;99863.41;;;7.92;54.25
40117;BME280;25829;50.228;18.936;2023-02-15T11:31:50;99868.13;;;7.89;54.59
40117;BME280;25829;50.228;18.936;2023-02-15T11:41:18;99859.88;;;7.58;54.39
40117;BME280;25829;50.228;18.936;2023-02-15T11:44:48;99863.13;;;7.52;54.12
40117;BME280;25829;50.228;18.936;2023-02-15T11:47:59;99846.69;;;7.49;55.32
40117;BME280;25829;50.228;18.936;2023-02-15T11:51:02;99848.19;;;7.52;55.11
40117;BME280;25829;50.228;18.936;2023-02-15T11:54:03;99843.75;;;7.53;54.15
40117;BME280;25829;50.228;18.936;2023-02-15T11:57:12;99839.03;;;7.56;55.14
40117;BME280;25829;50.228;18.936;2023-02-15T12:00:35;99837.91;;;7.59;55.58
40117;BME280;25829;50.228;18.936;2023-02-15T12:03:43;99835.41;;;7.57;54.72
40117;BME280;25829;50.228;18.936;2023-02-15T12:10:28;99820.81;;;7.55;55.30
40117;BME280;25829;50.228;18.936;2023-02-15T12:13:34;99816.88;;;7.59;54.99
40117;BME280;25829;50.228;18.936;2023-02-15T12:19:47;99814.25;;;7.59;51.47
40117;BME280;25829;50.228;18.936;2023-02-15T12:26:29;99808.84;;;7.60;53.78
40117;BME280;25829;50.228;18.936;2023-02-15T12:29:39;99803.59;;;7.60;53.46
40117;BME280;25829;50.228;18.936;2023-02-15T12:32:53;99800.44;;;7.57;52.32
40117;BME280;25829;50.228;18.936;2023-02-15T12:36:09;99800.09;;;7.52;53.17
40117;BME280;25829;50.228;18.936;2023-02-15T12:42:16;99781.13;;;7.66;53.46
40117;BME280;25829;50.228;18.936;2023-02-15T12:45:27;99783.59;;;7.67;51.86
40117;BME280;25829;50.228;18.936;2023-02-15T12:48:46;99771.75;;;7.63;51.02
40117;BME280;25829;50.228;18.936;2023-02-15T12:51:48;99786.31;;;7.58;50.83
40117;BME280;25829;50.228;18.936;2023-02-15T12:55:23;99776.09;;;7.46;49.56
40117;BME280;25829;50.228;18.936;2023-02-15T12:58:34;99776.06;;;7.38;50.34
40117;BME280;25829;50.228;18.936;2023-02-15T13:01:44;99771.53;;;7.48;51.43
40117;BME280;25829;50.228;18.936;2023-02-15T13:04:49;99762.66;;;7.49;49.52
40117;BME280;25829;50.228;18.936;2023-02-15T13:07:53;99751.16;;;7.50;50.34
40117;BME280;25829;50.228;18.936;2023-02-15T13:10:57;99763.03;;;7.55;51.29
40117;BME280;25829;50.228;18.936;2023-02-15T13:14:20;99758.50;;;7.65;51.62
40117;BME280;25829;50.228;18.936;2023-02-15T13:17:28;99751.94;;;7.69;51.75
40117;BME280;25829;50.228;18.936;2023-02-15T13:20:37;99748.81;;;7.73;52.11
40117;BME280;25829;50.228;18.936;2023-02-15T13:23:45;99746.56;;;7.79;51.44
40117;BME280;25829;50.228;18.936;2023-02-15T13:26:48;99731.16;;;7.84;51.88
40117;BME280;25829;50.228;18.936;2023-02-15T13:29:54;99736.63;;;7.90;52.11
40117;BME280;25829;50.228;18.936;2023-02-15T13:33:03;99732.84;;;7.93;51.92
40117;BME280;25829;50.228;18.936;2023-02-15T13:39:47;99728.25;;;7.95;51.58
40117;BME280;25829;50.228;18.936;2023-02-15T13:46:15;99721.84;;;7.97;51.10
40117;BME280;25829;50.228;18.936;2023-02-15T13:53:00;99712.34;;;7.96;50.88
40117;BME280;25829;50.228;18.936;2023-02-15T14:03:05;99719.41;;;7.96;51.36
40117;BME280;25829;50.228;18.936;2023-02-15T14:23:26;99709.00;;;7.86;50.04
40117;BME280;25829;50.228;18.936;2023-02-15T14:49:59;99693.16;;;7.70;52.68
40117;BME280;25829;50.228;18.936;2023-02-15T15:13:38;99687.81;;;7.45;52.98
40117;BME280;25829;50.228;18.936;2023-02-15T15:19:57;99686.31;;;7.43;53.31
40117;BME280;25829;50.228;18.936;2023-02-15T15:26:24;99685.28;;;7.36;53.46
40117;BME280;25829;50.228;18.936;2023-02-15T15:29:43;99689.22;;;7.32;53.97
40117;BME280;25829;50.228;18.936;2023-02-15T15:33:39;99683.44;;;7.28;54.33
40117;BME280;25829;50.228;18.936;2023-02-15T15:50:15;99677.84;;;6.97;54.93
40117;BME280;25829;50.228;18.936;2023-02-15T15:53:21;99667.31;;;6.89;55.19
40117;BME280;25829;50.228;18.936;2023-02-15T15:56:35;99666.25;;;6.82;55.56
40117;BME280;25829;50.228;18.936;2023-02-15T15:59:44;99665.56;;;6.71;55.33
40117;BME280;25829;50.228;18.936;2023-02-15T16:02:52;99665.78;;;6.60;55.72
40117;BME280;25829;50.228;18.936;2023-02-15T16:05:53;99662.06;;;6.45;55.71
40117;BME280;25829;50.228;18.936;2023-02-15T16:09:24;99664.59;;;6.37;55.97
40117;BME280;25829;50.228;18.936;2023-02-15T16:12:30;99666.81;;;6.23;56.69
40117;BME280;25829;50.228;18.936;2023-02-15T16:15:43;99668.97;;;6.10;56.87
40117;BME280;25829;50.228;18.936;2023-02-15T16:18:45;99672.41;;;5.93;57.72
40117;BME280;25829;50.228;18.936;2023-02-15T16:21:57;99668.97;;;5.82;57.74
40117;BME280;25829;50.228;18.936;2023-02-15T16:28:12;99677.22;;;5.60;57.84
40117;BME280;25829;50.228;18.936;2023-02-15T16:31:15;99670.53;;;5.48;57.94
40117;BME280;25829;50.228;18.936;2023-02-15T16:34:16;99679.00;;;5.32;58.61
40117;BME280;25829;50.228;18.936;2023-02-15T16:37:20;99679.19;;;5.21;58.88
40117;BME280;25829;50.228;18.936;2023-02-15T16:43:26;99675.25;;;4.97;59.58
40117;BME280;25829;50.228;18.936;2023-02-15T16:46:36;99675.28;;;4.87;59.52
40117;BME280;25829;50.228;18.936;2023-02-15T16:49:39;99681.09;;;4.81;59.88
40117;BME280;25829;50.228;18.936;2023-02-15T16:52:44;99676.97;;;4.69;59.94
40117;BME280;25829;50.228;18.936;2023-02-15T16:55:49;99673.53;;;4.59;60.58
40117;BME280;25829;50.228;18.936;2023-02-15T16:58:52;99678.09;;;4.47;60.41
40117;BME280;25829;50.228;18.936;2023-02-15T17:01:54;99677.28;;;4.37;60.41
40117;BME280;25829;50.228;18.936;2023-02-15T17:08:18;99681.25;;;4.12;60.92
40117;BME280;25829;50.228;18.936;2023-02-15T17:11:33;99683.97;;;4.01;61.33
40117;BME280;25829;50.228;18.936;2023-02-15T17:14:38;99684.09;;;3.89;61.24
40117;BME280;25829;50.228;18.936;2023-02-15T17:17:41;99675.81;;;3.75;61.47
40117;BME280;25829;50.228;18.936;2023-02-15T17:20:43;99674.81;;;3.66;61.90
40117;BME280;25829;50.228;18.936;2023-02-15T17:41:31;99672.53;;;3.11;62.65
40117;BME280;25829;50.228;18.936;2023-02-15T17:44:33;99676.59;;;3.04;63.09
40117;BME280;25829;50.228;18.936;2023-02-15T17:47:34;99676.44;;;2.96;63.24
40117;BME280;25829;50.228;18.936;2023-02-15T17:50:35;99672.44;;;2.92;63.39
40117;BME280;25829;50.228;18.936;2023-02-15T17:53:36;99673.50;;;2.89;63.43
40117;BME280;25829;50.228;18.936;2023-02-15T17:56:37;99664.44;;;2.84;63.95
40117;BME280;25829;50.228;18.936;2023-02-15T17:59:38;99667.28;;;2.81;64.27
40117;BME280;25829;50.228;18.936;2023-02-15T18:02:57;99668.50;;;2.77;64.59
40117;BME280;25829;50.228;18.936;2023-02-15T18:06:16;99661.75;;;2.74;65.33
40117;BME280;25829;50.228;18.936;2023-02-15T18:26:51;99671.63;;;2.70;65.75
40117;BME280;25829;50.228;18.936;2023-02-15T18:40:05;99652.31;;;2.73;65.89
40117;BME280;25829;50.228;18.936;2023-02-15T18:43:11;99657.63;;;2.71;65.78
40117;BME280;25829;50.228;18.936;2023-02-15T18:46:21;99655.16;;;2.70;65.77
40117;BME280;25829;50.228;18.936;2023-02-15T18:49:22;99653.75;;;2.66;66.00
40117;BME280;25829;50.228;18.936;2023-02-15T18:52:25;99652.91;;;2.65;65.93
40117;BME280;25829;50.228;18.936;2023-02-15T18:55:33;99666.78;;;2.66;66.02
40117;BME280;25829;50.228;18.936;2023-02-15T18:58:48;99655.28;;;2.68;65.86
40117;BME280;25829;50.228;18.936;2023-02-15T21:16:15;99580.19;;;1.24;68.59
40117;BME280;25829;50.228;18.936;2023-02-15T21:19:18;99581.72;;;1.26;68.44
40117;BME280;25829;50.228;18.936;2023-02-15T21:22:19;99583.50;;;1.26;68.72
40117;BME280;25829;50.228;18.936;2023-02-15T21:25:31;99579.13;;;1.26;68.32
40117;BME280;25829;50.228;18.936;2023-02-15T21:28:32;99575.84;;;1.24;68.72
40117;BME280;25829;50.228;18.936;2023-02-15T21:31:33;99579.59;;;1.20;68.61
40117;BME280;25829;50.228;18.936;2023-02-15T21:34:33;99573.81;;;1.17;68.71
40117;BME280;25829;50.228;18.936;2023-02-15T21:37:35;99562.00;;;1.13;68.24
40117;BME280;25829;50.228;18.936;2023-02-15T21:40:37;99558.38;;;1.04;68.58
40117;BME280;25829;50.228;18.936;2023-02-15T21:43:38;99557.66;;;1.02;69.14
40117;BME280;25829;50.228;18.936;2023-02-15T21:46:57;99556.84;;;1.01;68.63
40117;BME280;25829;50.228;18.936;2023-02-15T21:50:18;99561.91;;;1.03;68.78
40117;BME280;25829;50.228;18.936;2023-02-15T21:53:43;99558.63;;;1.01;68.47
40117;BME280;25829;50.228;18.936;2023-02-15T22:00:35;99544.53;;;0.92;68.46
40117;BME280;25829;50.228;18.936;2023-02-15T22:03:37;99542.31;;;0.88;68.42
40117;BME280;25829;50.228;18.936;2023-02-15T22:06:39;99535.00;;;0.81;68.54
40117;BME280;25829;50.228;18.936;2023-02-15T22:09:40;99539.59;;;0.78;68.64
40117;BME280;25829;50.228;18.936;2023-02-15T22:12:42;99537.94;;;0.77;68.38
40117;BME280;25829;50.228;18.936;2023-02-15T22:15:44;99539.72;;;0.76;68.59
40117;BME280;25829;50.228;18.936;2023-02-15T22:18:46;99535.47;;;0.75;69.09
40117;BME280;25829;50.228;18.936;2023-02-15T22:21:47;99544.19;;;0.74;68.59
40117;BME280;25829;50.228;18.936;2023-02-15T22:24:48;99538.91;;;0.76;68.81
40117;BME280;25829;50.228;18.936;2023-02-15T22:27:51;99546.13;;;0.72;68.38
40117;BME280;25829;50.228;18.936;2023-02-15T22:30:52;99537.81;;;0.67;68.45
40117;BME280;25829;50.228;18.936;2023-02-15T22:33:53;99534.50;;;0.65;68.82
40117;BME280;25829;50.228;18.936;2023-02-15T22:36:55;99533.91;;;0.62;68.70
40117;BME280;25829;50.228;18.936;2023-02-15T22:39:56;99535.81;;;0.59;68.63
40117;BME280;25829;50.228;18.936;2023-02-15T22:42:59;99537.25;;;0.52;68.65
40117;BME280;25829;50.228;18.936;2023-02-15T22:46:03;99541.84;;;0.49;68.48
40117;BME280;25829;50.228;18.936;2023-02-15T22:49:04;99536.28;;;0.42;68.16
40117;BME280;25829;50.228;18.936;2023-02-15T22:52:07;99545.47;;;0.35;68.29
40117;BME280;25829;50.228;18.936;2023-02-15T22:55:13;99543.47;;;0.27;68.37
40117;BME280;25829;50.228;18.936;2023-02-15T22:58:22;99545.34;;;0.25;68.03
40117;BME280;25829;50.228;18.936;2023-02-15T23:01:29;99532.00;;;0.19;67.97
40117;BME280;25829;50.228;18.936;2023-02-15T23:04:30;99530.78;;;0.11;68.59
40117;BME280;25829;50.228;18.936;2023-02-15T23:07:31;99537.25;;;0.06;68.15
40117;BME280;25829;50.228;18.936;2023-02-15T23:10:31;99529.09;;;-0.01;68.49
40117;BME280;25829;50.228;18.936;2023-02-15T23:13:32;99528.50;;;-0.04;68.62
40117;BME280;25829;50.228;18.936;2023-02-15T23:16:33;99517.66;;;-0.09;68.20
40117;BME280;25829;50.228;18.936;2023-02-15T23:19:34;99514.69;;;-0.16;68.59
40117;BME280;25829;50.228;18.936;2023-02-15T23:22:35;99507.25;;;-0.21;68.61
40117;BME280;25829;50.228;18.936;2023-02-15T23:25:36;99513.59;;;-0.25;68.77